Terminal Aerodrome Forecast
Issued by NWS

Home | Current Version | Previous Version | Text Only | Print | Product List | Glossary On
Versions: 1 2 3 4 5 6 7 8 9 10 11 12 13 14 15 16 17 18 19 20 21 22 23 24 25 26 27 28 29 30
937
FTAK31 PANC 301738
TAFATK
TAF
PATK 301738Z 3018/3118 20006KT P6SM -SHRA BKN050 OVC060
      TEMPO 3018/3021 3SM RA
     FM302100 20005KT P6SM SCT040
     FM310300 20005KT P6SM VCTS FEW030 BKN040CB
     FM310900 VRB05KT P6SM OVC050=

USA.gov is the U.S. government's official web portal to all federal, state and local government web resources and services.